Aviation Digital Data Service (ADDS)

Output produced by METARs form (0240 UTC 21 September 2018)
found at http://aviationweather.gov/metar/data/
 
ESTA 210220Z AUTO 12008KT 9999 BKN170/// 15/14 Q1005
TAF ESTA 201708Z 2018/2022 17008KT 9999 BKN020 
     TEMPO 2018/2021 2500 RADZ BR BKN007